Ozone Park, New York
Current Conditions -  °F | °C
As of 2:51 AM on Tuesday 21 Oct 2014 (Local Time) from KJFK Reporting Station
Overcast Overcast  
Wind Chill: 56°   Ceiling: 14000
Heat Index: 56°   Visibility: 10mi
Dew Point: 46°   Wind: 5mph
Humidity: 69%   Direction: 220°SW
Pressure: 29.94"   Gusts: NA
Location:  40.68°N, 73.84°W
Report Text: KJFK 210651Z 22004KT 10SM SCT050 BKN140 OVC210 13/08 A2994 RMK AO2 SLP139 T01330078
Loading
Personal Weather Stations






























Interactive Weather Map
Tropical Storm Tracking
New forecast layout! Learn more

10-Day Weather Forecast

Advertisements
Track Severe Weather on mobile